createdAt,value
2023-01-04T00:03:58.362Z,76.3
2023-01-04T00:09:34.519Z,75.9
2023-01-04T00:15:11.259Z,75.2
2023-01-04T00:20:46.807Z,75.3
2023-01-04T00:26:22.029Z,74.9
2023-01-04T00:31:56.718Z,75.4
2023-01-04T00:37:31.979Z,75.2
2023-01-04T00:43:08.117Z,74.6
2023-01-04T00:49:05.383Z,74.3
2023-01-04T00:54:38.470Z,74.3
2023-01-04T01:00:13.677Z,74.5
2023-01-04T01:05:50.531Z,74.4
2023-01-04T01:11:25.475Z,74.4
2023-01-04T01:17:00.750Z,74.1
2023-01-04T01:22:45.258Z,74
2023-01-04T01:28:20.368Z,74.6
2023-01-04T01:33:55.677Z,74.4
2023-01-04T01:39:32.560Z,74.5
2023-01-04T01:45:08.022Z,74.9
2023-01-04T01:50:42.930Z,74.5
2023-01-04T01:56:18.124Z,74.7
2023-01-04T02:01:54.631Z,74.6
2023-01-04T02:07:31.858Z,74.7
2023-01-04T02:13:07.197Z,74.9
2023-01-04T02:18:43.469Z,75.3
2023-01-04T02:24:19.797Z,75.7
2023-01-04T02:29:55.184Z,75.3
2023-01-04T02:35:33.615Z,74.7
2023-01-04T02:41:08.974Z,75.1
2023-01-04T02:47:06.793Z,74.5
2023-01-04T02:52:40.409Z,74.4
2023-01-04T02:58:15.878Z,75.3
2023-01-04T03:03:52.608Z,74.6
2023-01-04T03:09:34.947Z,74.6
2023-01-04T03:15:10.076Z,75
2023-01-04T03:20:45.676Z,75
2023-01-04T03:26:21.750Z,75.1
2023-01-04T03:31:59.717Z,75.1
2023-01-04T03:37:34.543Z,74.8
2023-01-04T03:43:10.209Z,74.7
2023-01-04T03:49:07.721Z,74.6
2023-01-04T03:54:40.844Z,74.7
2023-01-04T04:00:17.179Z,74.5
2023-01-04T04:05:52.980Z,73.8
2023-01-04T04:11:28.660Z,73.8
2023-01-04T04:17:03.853Z,73.8
2023-01-04T04:22:38.986Z,73.5
2023-01-04T04:28:13.969Z,74.3
2023-01-04T04:33:49.134Z,74.5
2023-01-04T04:39:24.473Z,73.7
2023-01-04T04:45:01.060Z,73.6
2023-01-04T04:50:36.839Z,73.5
2023-01-04T04:56:11.843Z,73.6
2023-01-04T05:01:47.683Z,73.4
2023-01-04T05:07:24.839Z,73.7
2023-01-04T05:13:00.680Z,73.8
2023-01-04T05:18:36.000Z,74
2023-01-04T05:24:13.038Z,74.2
2023-01-04T05:29:49.573Z,73.9
2023-01-04T05:35:25.129Z,73.5
2023-01-04T05:41:01.060Z,73.1
2023-01-04T05:46:58.274Z,73
2023-01-04T05:52:31.024Z,72.4
2023-01-04T05:58:07.152Z,72.1
2023-01-04T06:03:42.662Z,72.3
2023-01-04T06:09:19.798Z,71.8
2023-01-04T06:14:55.055Z,72.2
2023-01-04T06:20:30.428Z,72.4
2023-01-04T06:26:05.561Z,72.3
2023-01-04T06:31:41.266Z,72.3
2023-01-04T06:37:16.394Z,72.3
2023-01-04T06:43:00.891Z,72.4
2023-01-04T06:48:58.208Z,70.9
2023-01-04T06:54:31.163Z,70.6
2023-01-04T07:00:07.818Z,70.9
2023-01-04T07:05:44.268Z,71.7
2023-01-04T07:11:19.375Z,71.6
2023-01-04T07:16:54.636Z,71.5
2023-01-04T07:22:30.472Z,71.1
2023-01-04T07:28:05.862Z,70.7
2023-01-04T07:33:41.435Z,71
2023-01-04T07:39:17.091Z,71.5
2023-01-04T07:44:52.255Z,71.1
2023-01-04T07:50:28.336Z,70.8
2023-01-04T07:56:04.347Z,70.1
2023-01-04T08:01:40.388Z,73.2
2023-01-04T08:07:29.386Z,76.8
2023-01-04T08:13:05.475Z,78.9
2023-01-04T08:18:43.491Z,78.8
2023-01-04T08:24:19.688Z,79.3
2023-01-04T08:30:09.352Z,78.8
2023-01-04T08:35:45.559Z,77
2023-01-04T08:42:30.533Z,79.5
2023-01-04T08:48:29.219Z,79.6
2023-01-04T08:54:03.658Z,81.2
2023-01-04T08:59:38.784Z,79.7
2023-01-04T09:05:23.789Z,77.4
2023-01-04T09:11:06.504Z,75.1
2023-01-04T09:16:56.391Z,79
2023-01-04T09:22:31.769Z,78.5
2023-01-04T09:28:08.951Z,80.2
2023-01-04T09:34:26.201Z,77.7
2023-01-04T09:40:11.177Z,78.6
2023-01-04T09:45:47.639Z,77.6
2023-01-04T09:51:23.199Z,77.1
2023-01-04T09:56:59.951Z,71.2
2023-01-04T10:02:57.849Z,75.3
2023-01-04T10:08:35.053Z,76
2023-01-04T10:14:10.437Z,75.3
2023-01-04T10:27:10.351Z,73.1
2023-01-04T10:32:45.544Z,71.8
2023-01-04T10:38:21.089Z,70
2023-01-04T10:44:14.415Z,67.8
2023-01-04T10:49:50.127Z,65.7
2023-01-04T10:55:25.181Z,63.7
2023-01-04T11:01:02.164Z,60.8
2023-01-04T11:06:38.244Z,59.8
2023-01-04T11:12:14.411Z,58
2023-01-04T11:17:49.601Z,54.8
2023-01-04T11:23:24.601Z,51.9
2023-01-04T11:28:59.988Z,49.8
2023-01-04T11:34:35.710Z,51.4
2023-01-04T11:40:12.102Z,50.3
2023-01-04T11:45:47.316Z,49.1
2023-01-04T11:51:23.404Z,46.5
2023-01-04T11:56:59.005Z,47.9
2023-01-04T12:03:03.929Z,51
2023-01-04T12:08:41.033Z,46.3
2023-01-04T12:14:17.671Z,46.8
2023-01-04T12:19:53.868Z,41.8
2023-01-04T12:25:29.647Z,40.4
2023-01-04T12:36:40.537Z,39.7
2023-01-04T12:42:16.535Z,38.9
2023-01-04T12:48:14.345Z,38.4
2023-01-04T12:53:47.152Z,42.6
2023-01-04T12:59:27.066Z,39.6
2023-01-04T13:05:55.232Z,35.2
2023-01-04T13:11:38.955Z,34.4
2023-01-04T13:17:15.468Z,39.1
2023-01-04T13:22:52.375Z,40.1
2023-01-04T13:28:31.278Z,37.5
2023-01-04T13:34:33.097Z,36.3
2023-01-04T13:40:08.480Z,32.3
2023-01-04T13:45:44.146Z,34.9
2023-01-04T13:51:20.427Z,34.6
2023-01-04T13:56:56.515Z,33
2023-01-04T14:02:32.166Z,34.9
2023-01-04T14:08:09.239Z,37.6
2023-01-04T14:13:44.611Z,38.6
2023-01-04T14:19:19.940Z,37.8
2023-01-04T14:25:11.999Z,39.5
2023-01-04T14:30:48.161Z,36.6
2023-01-04T14:36:24.545Z,30.2
2023-01-04T14:42:00.280Z,39
2023-01-04T14:47:57.295Z,43.6
2023-01-04T14:53:30.463Z,45.1
2023-01-04T14:59:05.775Z,42
2023-01-04T15:04:40.483Z,42.6
2023-01-04T15:10:15.746Z,43.4
2023-01-04T15:15:51.271Z,44.9
2023-01-04T15:21:27.516Z,49.4
2023-01-04T15:27:03.450Z,51.1
2023-01-04T15:32:38.601Z,51.1
2023-01-04T15:38:18.804Z,50.9
2023-01-04T15:43:54.152Z,52.1
2023-01-04T15:49:50.773Z,51.9
2023-01-04T15:55:23.349Z,55.1
2023-01-04T16:01:06.994Z,53.7
2023-01-04T16:06:43.346Z,59.7
2023-01-04T16:12:19.129Z,56.8
2023-01-04T16:17:54.302Z,54.2
2023-01-04T16:23:29.480Z,53.3
2023-01-04T16:29:06.336Z,50.8
2023-01-04T16:34:42.229Z,50.5
2023-01-04T16:40:17.618Z,49.9
2023-01-04T16:45:52.924Z,50.4
2023-01-04T16:51:28.535Z,56.5
2023-01-04T16:57:03.763Z,56.4
2023-01-04T17:02:43.363Z,57.4
2023-01-04T17:08:27.669Z,56.9
2023-01-04T17:14:14.273Z,57.7
2023-01-04T17:19:52.251Z,57.1
2023-01-04T17:25:31.785Z,55.6
2023-01-04T17:31:07.326Z,58.4
2023-01-04T17:36:44.321Z,57.3
2023-01-04T17:42:19.503Z,60.2
2023-01-04T17:47:55.186Z,61.8
2023-01-04T17:53:30.905Z,59.6
2023-01-04T17:59:05.889Z,62.9
2023-01-04T18:04:41.615Z,62.7
2023-01-04T18:11:06.091Z,65.4
2023-01-04T18:16:45.435Z,61.5
2023-01-04T18:22:22.688Z,60
2023-01-04T18:28:12.335Z,60
2023-01-04T18:34:21.175Z,60.5
2023-01-04T18:40:22.827Z,60.3
2023-01-04T18:46:44.116Z,60.1
2023-01-04T18:52:27.640Z,60
2023-01-04T18:58:03.222Z,60.1
2023-01-04T19:03:38.735Z,60.2
2023-01-04T19:09:14.379Z,60.2
2023-01-04T19:14:50.341Z,60.7
2023-01-04T19:20:33.120Z,61.4
2023-01-04T19:26:12.072Z,61.4
2023-01-04T19:32:01.248Z,61.1
2023-01-04T19:37:37.732Z,60.6
2023-01-04T19:43:29.809Z,60.8
2023-01-04T19:49:15.791Z,61.5
2023-01-04T19:54:52.340Z,61.5
2023-01-04T20:00:55.523Z,61.4
2023-01-04T20:06:39.283Z,61.8
2023-01-04T20:12:16.790Z,61.4
2023-01-04T20:17:58.211Z,61.9
2023-01-04T20:23:33.311Z,62.4
2023-01-04T20:29:11.126Z,62.8
2023-01-04T20:34:53.515Z,62.4
2023-01-04T20:40:28.518Z,62.6
2023-01-04T20:46:13.705Z,62.5
2023-01-04T20:51:50.069Z,62.1
2023-01-04T20:57:34.398Z,61
2023-01-04T21:03:10.760Z,61.1
2023-01-04T21:08:48.441Z,61.7
2023-01-04T21:14:30.659Z,60.7
2023-01-04T21:20:13.501Z,61.1
2023-01-04T21:26:11.000Z,61
2023-01-04T21:31:47.999Z,60.3
2023-01-04T21:37:27.227Z,60.3
2023-01-04T21:43:25.047Z,60.3
2023-01-04T21:49:03.482Z,61.7
2023-01-04T21:54:45.830Z,60.8
2023-01-04T22:00:21.493Z,61
2023-01-04T22:06:05.918Z,61.4
2023-01-04T22:11:41.839Z,62.1
2023-01-04T22:17:29.072Z,61.9
2023-01-04T22:23:30.549Z,61
2023-01-04T22:29:05.307Z,62.3
2023-01-04T22:34:40.380Z,62.2
2023-01-04T22:40:43.890Z,61.8
2023-01-04T22:48:05.433Z,60.3
2023-01-04T22:53:40.621Z,61.5
2023-01-04T22:59:16.361Z,61.5
2023-01-04T23:04:57.903Z,62.8
2023-01-04T23:10:43.931Z,62.8
2023-01-04T23:16:21.840Z,62
2023-01-04T23:22:09.264Z,60.8
2023-01-04T23:28:19.418Z,60.4
2023-01-04T23:34:24.630Z,61.3
2023-01-04T23:39:59.786Z,62.3
2023-01-04T23:45:42.721Z,60.8
2023-01-04T23:51:36.024Z,59.9
2023-01-04T23:57:21.256Z,59.7
